Time;durP1;ratioP1;P1;durP2;ratioP2;P2;SDS_P1;SDS_P2;PMS_P1;PMS_P2;Temp;Humidity;BMP_temperature;BMP_pressure;BME280_temperature;BME280_humidity;BME280_pressure;Samples;Min_cycle;Max_cycle;Signal;HPM_P1;HPM_P2
2022/05/02 00:00:12;;;;;;;12.93;11.43;;;9.50;99.90;;;;;;5050337;28;20178;-65
2022/05/02 00:02:38;;;;;;;13.43;10.70;;;9.50;99.90;;;;;;5050707;28;20214;-65
2022/05/02 00:05:05;;;;;;;13.20;11.63;;;9.40;99.90;;;;;;5051164;28;20185;-65
2022/05/02 00:07:31;;;;;;;15.47;12.13;;;9.40;99.90;;;;;;5051232;28;20248;-65
2022/05/02 00:09:56;;;;;;;12.53;11.23;;;9.30;99.90;;;;;;5051551;28;20681;-64
2022/05/02 00:12:22;;;;;;;13.70;12.23;;;9.30;99.90;;;;;;5051929;28;20313;-65
2022/05/02 00:14:48;;;;;;;13.07;10.90;;;9.30;99.90;;;;;;5049670;28;20193;-64
2022/05/02 00:17:14;;;;;;;12.97;11.77;;;9.20;99.90;;;;;;5051276;28;20222;-65
2022/05/02 00:19:39;;;;;;;13.67;12.20;;;9.10;99.90;;;;;;5051597;28;20625;-65
2022/05/02 00:22:05;;;;;;;13.73;11.67;;;9.10;99.90;;;;;;5050317;28;20178;-65
2022/05/02 00:24:31;;;;;;;14.27;12.77;;;9.00;99.90;;;;;;5051034;28;20269;-65
2022/05/02 00:26:57;;;;;;;13.13;11.90;;;8.90;99.90;;;;;;5051248;28;20228;-65
2022/05/02 00:29:23;;;;;;;16.27;12.87;;;8.80;99.90;;;;;;5051192;28;20253;-64
2022/05/02 00:31:48;;;;;;;13.93;12.30;;;8.70;99.90;;;;;;5051259;28;20174;-65
2022/05/02 00:34:14;;;;;;;18.93;12.83;;;8.70;99.90;;;;;;5051226;28;20228;-64
2022/05/02 00:36:40;;;;;;;13.77;12.37;;;8.60;99.90;;;;;;5049480;28;20648;-65
2022/05/02 00:39:06;;;;;;;15.00;13.40;;;8.60;99.90;;;;;;5051110;28;20663;-65
2022/05/02 00:41:32;;;;;;;12.97;11.67;;;8.50;99.90;;;;;;5050133;28;20175;-65
2022/05/02 00:43:58;;;;;;;16.80;12.77;;;8.40;99.90;;;;;;5050968;28;20642;-64
2022/05/02 00:46:26;;;;;;;13.37;12.10;;;8.30;99.90;;;;;;5050420;28;20206;-65
2022/05/02 00:48:52;;;;;;;18.80;13.63;;;8.20;99.90;;;;;;5048565;28;20197;-64
2022/05/02 00:51:18;;;;;;;16.97;13.53;;;8.20;99.90;;;;;;5051239;28;20213;-65
2022/05/02 00:53:49;;;;;;;15.97;12.40;;;8.20;99.90;;;;;;5050842;28;20602;-65
2022/05/02 00:56:20;;;;;;;14.53;13.03;;;8.10;99.90;;;;;;5050941;28;20187;-65
2022/05/02 00:58:48;;;;;;;15.40;12.43;;;8.00;99.90;;;;;;5050885;28;20729;-66
2022/05/02 01:01:13;;;;;;;13.97;12.50;;;8.00;99.90;;;;;;5059262;28;20174;-64
2022/05/02 01:03:39;;;;;;;14.83;13.17;;;8.00;99.90;;;;;;5071157;28;20689;-64
2022/05/02 01:08:52;;;;;;;16.10;13.37;;;7.90;99.90;;;;;;5050895;28;20304;-65
2022/05/02 01:11:17;;;;;;;14.80;13.30;;;7.90;99.90;;;;;;5050832;28;20190;-65
2022/05/02 01:13:45;;;;;;;14.67;12.80;;;7.90;99.90;;;;;;5049596;28;20549;-65
2022/05/02 01:16:20;;;;;;;14.17;12.67;;;7.90;99.90;;;;;;5053822;28;20321;-64
2022/05/02 01:18:48;;;;;;;16.93;14.00;;;8.00;99.90;;;;;;5054626;28;20217;-64
2022/05/02 01:21:29;;;;;;;14.60;13.10;;;8.00;99.90;;;;;;5054395;28;20217;-65
2022/05/02 01:23:57;;;;;;;17.77;14.43;;;8.10;99.90;;;;;;5053311;28;20182;-65
2022/05/02 01:26:23;;;;;;;15.67;14.07;;;8.10;99.90;;;;;;5053795;28;20596;-65
2022/05/02 01:28:51;;;;;;;21.40;13.80;;;8.20;99.90;;;;;;5052950;28;20179;-66
2022/05/02 01:31:18;;;;;;;15.90;13.97;;;8.20;99.90;;;;;;5054142;28;20246;-65
2022/05/02 01:33:44;;;;;;;14.73;13.23;;;8.30;99.90;;;;;;5054757;28;20171;-64
2022/05/02 01:36:10;;;;;;;15.67;13.40;;;8.40;99.90;;;;;;5053825;28;20206;-65
2022/05/02 01:38:36;;;;;;;14.13;12.73;;;8.50;99.90;;;;;;5034532;28;20172;-65
2022/05/02 01:41:08;;;;;;;14.03;12.63;;;8.70;99.90;;;;;;5051213;28;20188;-65
2022/05/02 01:43:34;;;;;;;16.17;14.43;;;8.80;99.90;;;;;;5055046;28;20658;-65
2022/05/02 01:46:03;;;;;;;18.53;14.13;;;8.90;99.90;;;;;;5053149;28;20210;-64
2022/05/02 01:48:29;;;;;;;16.50;12.90;;;9.00;99.90;;;;;;5054169;28;20175;-65
2022/05/02 01:50:54;;;;;;;15.70;13.90;;;9.10;99.90;;;;;;5053566;28;20220;-65
2022/05/02 01:53:20;;;;;;;15.27;13.67;;;9.20;99.90;;;;;;5052501;28;20182;-65
2022/05/02 01:55:46;;;;;;;17.60;12.87;;;9.30;99.90;;;;;;5053306;28;20524;-65
2022/05/02 01:58:12;;;;;;;14.50;13.00;;;9.30;99.90;;;;;;5053841;28;20679;-65
2022/05/02 02:00:38;;;;;;;19.00;14.17;;;9.40;99.90;;;;;;5052281;28;20206;-65
2022/05/02 02:03:04;;;;;;;14.37;12.93;;;9.50;99.90;;;;;;5053658;28;20194;-64
2022/05/02 02:08:18;;;;;;;15.83;13.13;;;9.60;99.90;;;;;;5053854;28;20177;-65
2022/05/02 02:10:46;;;;;;;14.30;12.80;;;9.70;99.90;;;;;;5053371;28;20203;-66
2022/05/02 02:13:12;;;;;;;13.87;12.40;;;9.70;99.90;;;;;;5053641;28;20170;-65
2022/05/02 02:15:38;;;;;;;14.37;12.87;;;9.80;99.90;;;;;;5052811;28;20194;-64
2022/05/02 02:18:04;;;;;;;16.93;12.83;;;9.80;99.90;;;;;;5052438;28;20680;-65
2022/05/02 02:20:31;;;;;;;15.77;13.73;;;9.80;99.90;;;;;;5053287;28;20189;-65
2022/05/02 02:22:57;;;;;;;15.13;13.37;;;9.80;99.90;;;;;;5051958;28;20193;-65
2022/05/02 02:25:23;;;;;;;16.47;13.97;;;9.90;99.90;;;;;;5052619;28;20182;-66
2022/05/02 02:27:48;;;;;;;15.37;12.63;;;9.90;99.90;;;;;;5053180;28;20278;-64
2022/05/02 02:30:14;;;;;;;15.23;13.70;;;10.00;99.90;;;;;;5053339;28;20186;-64
2022/05/02 02:32:41;;;;;;;18.23;14.27;;;10.00;99.90;;;;;;5052941;28;20549;-65
2022/05/02 02:35:07;;;;;;;16.10;14.40;;;10.00;99.90;;;;;;5052813;28;20183;-64
2022/05/02 02:37:33;;;;;;;15.60;14.10;;;9.90;99.90;;;;;;5052837;28;20617;-65
2022/05/02 02:39:59;;;;;;;17.30;14.80;;;9.90;99.90;;;;;;5051788;28;20228;-65
2022/05/02 02:42:25;;;;;;;16.07;14.37;;;9.90;99.90;;;;;;5053103;28;20225;-65
2022/05/02 02:44:51;;;;;;;18.70;14.60;;;10.00;99.90;;;;;;5052183;28;20189;-67
2022/05/02 02:47:17;;;;;;;18.90;14.47;;;10.00;99.90;;;;;;5051435;28;20661;-64
2022/05/02 02:49:43;;;;;;;18.90;15.03;;;10.00;99.90;;;;;;5052758;28;20166;-65
2022/05/02 02:52:09;;;;;;;14.97;13.40;;;9.90;99.90;;;;;;5052794;28;20185;-64
2022/05/02 02:54:35;;;;;;;17.13;15.33;;;9.90;99.90;;;;;;5052486;28;20175;-65
2022/05/02 02:57:01;;;;;;;18.67;15.70;;;9.90;99.90;;;;;;5052569;28;20241;-65
2022/05/02 02:59:27;;;;;;;18.53;15.70;;;9.80;99.90;;;;;;5052773;28;20214;-65
2022/05/02 03:01:55;;;;;;;16.53;14.83;;;9.70;99.90;;;;;;5051181;28;20218;-64
2022/05/02 03:07:05;;;;;;;21.33;15.67;;;9.60;99.90;;;;;;5052390;28;20214;-64
2022/05/02 03:09:31;;;;;;;20.00;15.30;;;9.50;99.90;;;;;;5052726;28;20171;-65
2022/05/02 03:11:58;;;;;;;18.60;15.53;;;9.40;99.90;;;;;;5052123;28;20262;-66
2022/05/02 03:14:23;;;;;;;17.47;15.23;;;9.30;99.90;;;;;;5052604;28;20179;-65
2022/05/02 03:16:49;;;;;;;17.00;15.13;;;9.20;99.90;;;;;;5051684;28;20206;-65
2022/05/02 03:19:14;;;;;;;20.40;14.70;;;9.20;99.90;;;;;;5052456;28;20640;-65
2022/05/02 03:21:40;;;;;;;16.43;14.67;;;9.20;99.90;;;;;;5050829;28;20179;-64
2022/05/02 03:24:06;;;;;;;19.57;16.30;;;9.20;99.90;;;;;;5052363;28;20175;-64
2022/05/02 03:26:32;;;;;;;16.97;15.17;;;9.10;99.90;;;;;;5051547;28;20485;-64
2022/05/02 03:28:57;;;;;;;18.93;16.63;;;9.10;99.90;;;;;;5052042;28;20183;-64
2022/05/02 03:31:23;;;;;;;19.37;16.30;;;9.10;99.90;;;;;;5052148;28;20187;-64
2022/05/02 03:33:49;;;;;;;18.00;16.10;;;9.10;99.90;;;;;;5052132;28;20179;-64
2022/05/02 03:36:14;;;;;;;19.00;15.23;;;9.10;99.90;;;;;;5052054;28;20226;-65
2022/05/02 03:38:40;;;;;;;17.40;15.60;;;9.00;99.90;;;;;;5051380;28;20266;-65
2022/05/02 03:41:05;;;;;;;19.47;16.90;;;9.00;99.90;;;;;;5051656;28;20229;-65
2022/05/02 03:43:32;;;;;;;19.10;15.93;;;8.90;99.90;;;;;;5051962;28;20618;-65
2022/05/02 03:45:58;;;;;;;18.40;16.50;;;9.00;99.90;;;;;;5051034;28;20219;-65
2022/05/02 03:48:23;;;;;;;20.23;17.47;;;9.00;99.90;;;;;;5052019;28;20209;-65
2022/05/02 03:50:49;;;;;;;20.13;16.23;;;9.00;99.90;;;;;;5051540;28;20606;-65
2022/05/02 03:53:18;;;;;;;19.73;15.57;;;9.10;99.90;;;;;;5051400;28;20187;-65
2022/05/02 03:55:45;;;;;;;20.00;16.10;;;9.20;99.90;;;;;;5051314;28;20179;-65
2022/05/02 03:58:11;;;;;;;17.13;15.33;;;9.20;99.90;;;;;;5051545;28;20181;-65
2022/05/02 04:00:36;;;;;;;17.57;15.53;;;9.20;99.90;;;;;;5051409;28;20187;-65
2022/05/02 04:03:02;;;;;;;20.97;16.23;;;9.30;99.90;;;;;;5051535;28;20175;-65
2022/05/02 04:05:28;;;;;;;18.90;16.10;;;9.20;99.90;;;;;;5050768;28;20587;-65
2022/05/02 04:07:53;;;;;;;19.73;16.50;;;9.10;99.90;;;;;;5050181;28;20217;-64
2022/05/02 04:10:19;;;;;;;27.97;16.53;;;9.10;99.90;;;;;;5050168;28;20197;-65
2022/05/02 04:12:44;;;;;;;22.63;16.40;;;9.10;99.90;;;;;;5050181;28;20205;-65
2022/05/02 04:15:10;;;;;;;20.10;16.97;;;9.10;99.90;;;;;;5049700;28;20540;-65
2022/05/02 04:17:37;;;;;;;21.47;16.53;;;9.20;99.90;;;;;;5051535;28;20221;-65
2022/05/02 04:20:03;;;;;;;20.40;17.17;;;9.20;99.90;;;;;;5051212;28;20288;-65
2022/05/02 04:22:29;;;;;;;19.23;15.67;;;9.20;99.90;;;;;;5050132;28;20551;-65
2022/05/02 04:24:55;;;;;;;19.83;16.97;;;9.30;99.90;;;;;;5050669;28;20179;-65
2022/05/02 04:27:21;;;;;;;19.27;15.70;;;9.30;99.90;;;;;;5051251;28;20284;-65
2022/05/02 04:29:47;;;;;;;20.10;16.90;;;9.30;99.90;;;;;;5050951;28;20296;-65
2022/05/02 04:32:12;;;;;;;17.87;15.50;;;9.30;99.90;;;;;;5051286;28;20178;-65
2022/05/02 04:34:38;;;;;;;20.30;16.43;;;9.40;99.90;;;;;;5050591;28;20595;-65
2022/05/02 04:37:04;;;;;;;17.60;15.63;;;9.40;99.90;;;;;;5050979;28;20210;-65
2022/05/02 04:39:29;;;;;;;20.13;16.03;;;9.40;99.90;;;;;;5051092;28;20179;-65
2022/05/02 04:41:55;;;;;;;20.87;16.47;;;9.40;99.90;;;;;;5051253;28;20181;-65
2022/05/02 04:44:21;;;;;;;19.87;17.07;;;9.40;99.90;;;;;;5050974;28;20182;-65
2022/05/02 04:46:46;;;;;;;20.90;16.83;;;9.40;99.90;;;;;;5049260;28;20209;-65
2022/05/02 04:49:12;;;;;;;22.10;16.60;;;9.40;99.90;;;;;;5053228;28;20201;-65
2022/05/02 04:51:37;;;;;;;21.33;15.80;;;9.50;99.90;;;;;;5053709;28;20178;-65
2022/05/02 04:54:03;;;;;;;18.97;15.43;;;9.50;99.90;;;;;;5053861;28;20193;-65
2022/05/02 04:56:29;;;;;;;20.50;17.33;;;9.60;99.90;;;;;;5054894;28;20218;-65
2022/05/02 04:58:54;;;;;;;18.80;16.53;;;9.60;99.90;;;;;;5053536;28;20193;-65
2022/05/02 05:01:20;;;;;;;20.10;16.43;;;9.60;99.90;;;;;;5054781;28;20314;-65
2022/05/02 05:03:46;;;;;;;18.40;16.33;;;9.70;99.90;;;;;;5054892;28;20166;-65
2022/05/02 05:06:12;;;;;;;17.80;15.90;;;9.70;99.90;;;;;;5054229;28;20207;-65
2022/05/02 05:08:37;;;;;;;19.20;17.13;;;9.70;99.90;;;;;;5071002;28;20265;-65
2022/05/02 05:11:27;;;;;;;21.30;16.40;;;9.70;99.90;;;;;;5074678;28;20644;-65
2022/05/02 05:17:36;;;;;;;22.90;17.27;;;9.70;99.90;;;;;;5053056;28;20277;-65
2022/05/02 05:20:46;;;;;;;18.60;16.53;;;9.80;99.90;;;;;;5034887;28;20187;-65
2022/05/02 05:23:26;;;;;;;24.77;15.03;;;9.90;99.90;;;;;;4960091;28;20272;-65
2022/05/02 05:26:15;;;;;;;20.20;16.17;;;10.00;99.90;;;;;;5050353;28;20222;-65
2022/05/02 05:28:56;;;;;;;22.67;16.43;;;10.10;99.90;;;;;;5052942;28;20266;-65
2022/05/02 05:31:32;;;;;;;19.57;16.17;;;10.10;99.90;;;;;;5054478;28;20262;-65
2022/05/02 05:33:57;;;;;;;18.57;16.50;;;10.20;99.90;;;;;;5054059;28;20178;-65
2022/05/02 05:36:55;;;;;;;18.17;15.33;;;10.20;99.90;;;;;;5053899;28;20752;-65
2022/05/02 05:39:49;;;;;;;19.77;15.73;;;10.20;99.90;;;;;;5054046;28;20178;-66
2022/05/02 05:42:14;;;;;;;20.90;16.83;;;10.20;99.90;;;;;;5053067;28;20221;-65
2022/05/02 05:44:58;;;;;;;18.10;15.30;;;10.30;99.90;;;;;;5048827;28;20220;-65
2022/05/02 05:47:33;;;;;;;17.77;15.87;;;10.40;99.90;;;;;;5053920;28;20263;-65
2022/05/02 05:50:23;;;;;;;20.37;16.63;;;10.60;99.90;;;;;;5054071;28;20264;-65
2022/05/02 05:52:49;;;;;;;20.23;16.40;;;10.60;99.90;;;;;;5046917;28;20218;-65
2022/05/02 05:55:30;;;;;;;19.40;16.97;;;10.60;99.90;;;;;;5053611;28;20209;-65
2022/05/02 05:58:15;;;;;;;18.37;14.93;;;10.60;99.90;;;;;;5053409;28;20226;-65
2022/05/02 06:00:44;;;;;;;19.60;16.57;;;10.50;99.90;;;;;;5033091;28;20171;-65
2022/05/02 06:03:14;;;;;;;18.20;16.33;;;10.50;99.90;;;;;;5035409;28;20176;-65
2022/05/02 06:05:45;;;;;;;21.53;17.70;;;10.50;99.90;;;;;;5051985;28;20266;-65
2022/05/02 06:08:15;;;;;;;18.87;16.20;;;10.50;99.90;;;;;;5053558;28;20175;-65
2022/05/02 06:10:43;;;;;;;17.97;16.07;;;10.60;99.90;;;;;;5053433;28;20223;-65
2022/05/02 06:13:10;;;;;;;18.70;16.50;;;10.80;99.90;;;;;;5053308;28;20175;-65
2022/05/02 06:18:32;;;;;;;20.00;17.03;;;11.30;99.90;;;;;;5033663;28;20750;-65
2022/05/02 06:21:00;;;;;;;21.87;16.97;;;11.50;99.90;;;;;;5048556;28;20610;-65
2022/05/02 06:23:29;;;;;;;20.17;17.67;;;11.60;99.90;;;;;;5050945;28;20210;-65
2022/05/02 06:25:56;;;;;;;18.80;16.80;;;11.70;99.90;;;;;;5052346;28;20214;-66
2022/05/02 06:28:30;;;;;;;19.03;15.90;;;12.00;99.90;;;;;;5052998;28;20220;-66
2022/05/02 06:30:59;;;;;;;18.63;16.07;;;12.30;99.90;;;;;;5052448;28;20179;-66
2022/05/02 06:33:25;;;;;;;20.87;16.03;;;12.70;99.90;;;;;;5052913;28;20230;-66
2022/05/02 06:36:25;;;;;;;20.27;15.47;;;13.00;99.90;;;;;;5052222;28;20641;-65
2022/05/02 06:39:10;;;;;;;16.90;14.77;;;13.30;99.90;;;;;;5048239;28;20198;-66
2022/05/02 06:41:45;;;;;;;16.50;14.73;;;13.80;99.90;;;;;;5055776;28;20174;-66
2022/05/02 06:44:26;;;;;;;16.40;14.57;;;14.50;99.90;;;;;;5050974;28;20228;-66
2022/05/02 06:47:12;;;;;;;16.60;14.00;;;15.10;99.90;;;;;;5051477;28;20234;-65
2022/05/02 06:49:43;;;;;;;14.67;13.10;;;15.70;99.90;;;;;;5052925;28;20167;-66
2022/05/02 06:52:11;;;;;;;15.93;13.23;;;16.20;99.90;;;;;;5051046;28;20229;-66
2022/05/02 06:54:52;;;;;;;16.47;13.77;;;16.60;99.90;;;;;;5051425;28;20181;-66
2022/05/02 06:57:36;;;;;;;14.60;13.23;;;17.00;99.90;;;;;;5052089;28;20238;-65
2022/05/02 07:00:06;;;;;;;18.67;13.83;;;17.30;99.90;;;;;;5052212;28;20557;-66
2022/05/02 07:03:25;;;;;;;17.93;13.47;;;17.00;99.90;;;;;;5051742;28;20208;-65
2022/05/02 07:06:15;;;;;;;16.13;13.87;;;16.80;99.90;;;;;;5028472;28;20215;-66
2022/05/02 07:08:54;;;;;;;16.27;13.63;;;16.80;99.90;;;;;;5050720;28;20175;-66
2022/05/02 07:11:21;;;;;;;16.90;14.77;;;16.60;99.90;;;;;;5051855;28;20541;-66
2022/05/02 07:13:59;;;;;;;16.70;14.93;;;16.30;99.90;;;;;;5051031;28;20206;-66
2022/05/02 07:16:25;;;;;;;18.13;16.33;;;15.90;99.90;;;;;;5051816;28;20559;-65
2022/05/02 07:19:09;;;;;;;19.73;17.63;;;15.70;99.90;;;;;;5050589;28;20671;-65
2022/05/02 07:21:59;;;;;;;20.73;18.63;;;15.60;99.90;;;;;;5051718;28;20178;-66
2022/05/02 07:24:49;;;;;;;19.10;17.10;;;15.60;99.90;;;;;;5051997;28;20183;-65
2022/05/02 07:27:34;;;;;;;15.73;14.03;;;15.90;99.90;;;;;;5051440;28;20229;-66
2022/05/02 07:30:00;;;;;;;18.90;14.83;;;16.20;99.90;;;;;;5069053;28;20268;-66
2022/05/02 07:32:27;;;;;;;17.73;15.30;;;16.40;99.90;;;;;;5066439;28;20286;-66
2022/05/02 07:34:55;;;;;;;18.33;15.17;;;16.50;99.90;;;;;;5049010;28;20211;-66
2022/05/02 07:37:24;;;;;;;17.10;15.30;;;16.60;99.90;;;;;;5051045;28;20214;-66
2022/05/02 07:39:51;;;;;;;21.10;16.93;;;16.80;99.90;;;;;;5051077;28;20237;-66
2022/05/02 07:42:18;;;;;;;16.27;14.67;;;17.30;99.90;;;;;;5051451;28;20179;-66
2022/05/02 07:44:47;;;;;;;15.90;14.27;;;17.60;99.90;;;;;;5033363;28;20274;-66
2022/05/02 07:47:15;;;;;;;16.40;14.33;;;17.80;99.90;;;;;;5050477;28;20226;-66
2022/05/02 07:49:47;;;;;;;16.93;14.03;;;17.80;99.90;;;;;;5051539;28;20563;-66
2022/05/02 07:52:16;;;;;;;17.60;15.03;;;18.10;99.90;;;;;;5051382;28;20206;-65
2022/05/02 07:54:46;;;;;;;16.30;14.60;;;18.40;99.90;;;;;;5051119;28;20190;-66
2022/05/02 07:57:14;;;;;;;15.50;13.90;;;18.80;99.90;;;;;;5051155;28;20195;-66
2022/05/02 07:59:40;;;;;;;15.00;13.40;;;19.30;99.90;;;;;;5051430;28;20245;-66
2022/05/02 08:02:07;;;;;;;18.87;14.53;;;19.30;99.90;;;;;;5051316;28;20554;-66
2022/05/02 08:04:37;;;;;;;16.77;13.77;;;19.30;99.90;;;;;;5051232;28;20179;-66
2022/05/02 08:07:31;;;;;;;14.98;12.68;;;19.60;99.90;;;;;;5051126;28;20239;-66
2022/05/02 08:10:32;;;;;;;19.77;13.60;;;19.80;99.90;;;;;;5051250;28;20183;-66
2022/05/02 08:13:18;;;;;;;14.20;12.70;;;20.10;99.90;;;;;;5050958;28;20578;-66
2022/05/02 08:15:58;;;;;;;14.88;13.27;;;20.80;99.90;;;;;;5042165;28;20214;-66
2022/05/02 08:19:00;;;;;;;16.25;14.45;;;21.60;99.90;;;;;;5051457;28;20181;-65
2022/05/02 08:21:33;;;;;;;17.60;14.90;;;21.40;99.90;;;;;;5050892;28;20206;-66
2022/05/02 08:27:48;;;;;;;16.77;13.60;;;21.20;99.90;;;;;;5050652;28;20256;-66
2022/05/02 08:30:23;;;;;;;13.73;12.27;;;21.40;99.90;;;;;;5050798;28;20547;-65
2022/05/02 08:33:00;;;;;;;15.88;12.90;;;21.70;99.90;;;;;;5049374;28;20190;-66
2022/05/02 08:35:58;;;;;;;13.52;11.63;;;22.00;99.90;;;;;;5050623;28;20178;-66
2022/05/02 08:38:32;;;;;;;14.27;12.20;;;22.00;99.90;;;;;;5034348;28;20552;-66
2022/05/02 08:41:06;;;;;;;15.32;12.60;;;22.00;99.90;;;;;;5050566;28;20205;-66
2022/05/02 08:44:09;;;;;;;14.20;12.68;;;21.70;99.90;;;;;;5050972;28;20178;-66
2022/05/02 08:46:54;;;;;;;14.77;13.15;;;21.90;99.90;;;;;;5044496;28;20210;-66
2022/05/02 08:50:03;;;;;;;14.45;11.63;;;22.20;99.90;;;;;;5048430;28;20182;-66
2022/05/02 08:53:03;;;;;;;15.15;12.20;;;22.50;99.90;;;;;;5050436;28;20174;-66
2022/05/02 08:55:41;;;;;;;14.63;11.35;;;22.30;99.90;;;;;;5050772;28;20666;-65
2022/05/02 08:58:23;;;;;;;12.88;11.57;;;22.40;99.90;;;;;;5051040;28;20166;-66
2022/05/02 09:01:12;;;;;;;14.65;11.82;;;22.00;99.90;;;;;;5050853;28;20163;-65
2022/05/02 09:04:14;;;;;;;12.10;10.85;;;22.50;99.90;;;;;;5049629;28;20174;-65
2022/05/02 09:07:02;;;;;;;9.88;8.95;;;23.00;99.90;;;;;;5050313;28;20206;-65
2022/05/02 09:09:46;;;;;;;11.70;9.60;;;23.00;99.90;;;;;;5050949;28;20217;-67
2022/05/02 09:12:49;;;;;;;11.38;10.23;;;23.30;99.90;;;;;;5050879;28;20705;-66
2022/05/02 09:15:45;;;;;;;12.68;9.38;;;23.20;99.90;;;;;;5050384;28;20174;-67
2022/05/02 09:18:17;;;;;;;10.48;9.35;;;22.70;99.90;;;;;;5050792;28;20436;-67
2022/05/02 09:21:05;;;;;;;10.23;9.23;;;22.80;99.90;;;;;;5050687;28;20199;-66
2022/05/02 09:23:37;;;;;;;12.07;10.00;;;23.20;99.90;;;;;;5050739;28;20189;-67
2022/05/02 09:26:06;;;;;;;10.63;8.93;;;23.30;99.90;;;;;;5050562;28;20202;-66
2022/05/02 09:29:04;;;;;;;12.05;9.02;;;23.10;99.90;;;;;;5050740;28;20182;-67
2022/05/02 09:31:57;;;;;;;15.07;10.68;;;22.90;99.90;;;;;;5050232;28;20206;-65
2022/05/02 09:34:41;;;;;;;9.55;8.65;;;22.90;99.90;;;;;;5045186;28;20175;-66
2022/05/02 09:37:28;;;;;;;10.38;8.85;;;22.50;99.90;;;;;;5034274;28;20622;-66
2022/05/02 09:40:04;;;;;;;10.13;9.20;;;22.20;99.90;;;;;;5051763;28;20183;-66
2022/05/02 09:43:03;;;;;;;10.45;9.00;;;22.00;99.90;;;;;;5051618;28;20174;-65
2022/05/02 09:51:59;;;;;;;9.98;8.98;;;22.70;99.90;;;;;;5022297;28;20212;-66
2022/05/02 09:57:34;;;;;;;8.95;8.05;;;23.80;99.90;;;;;;5053346;28;20297;-65
2022/05/02 10:02:58;;;;;;;9.75;8.65;;;24.00;99.90;;;;;;5033727;28;20310;-66
2022/05/02 10:05:36;;;;;;;10.40;7.85;;;23.50;99.90;;;;;;5043494;28;20585;-66
2022/05/02 10:08:12;;;;;;;9.23;7.97;;;23.40;99.90;;;;;;5053622;28;20249;-66
2022/05/02 10:10:48;;;;;;;9.55;7.95;;;23.20;99.90;;;;;;5053340;28;20638;-67
2022/05/02 10:13:41;;;;;;;7.90;7.20;;;23.60;99.90;;;;;;5053378;28;20174;-67
2022/05/02 10:16:51;;;;;;;10.45;8.07;;;23.90;99.90;;;;;;5052957;28;20651;-65
2022/05/02 10:19:16;;;;;;;9.32;7.78;;;23.70;99.90;;;;;;5053305;28;20242;-65
2022/05/02 10:21:58;;;;;;;9.38;8.00;;;23.70;99.90;;;;;;5052869;28;20640;-66
2022/05/02 10:24:41;;;;;;;9.40;8.32;;;23.90;99.90;;;;;;5053289;28;20177;-66
2022/05/02 10:27:34;;;;;;;8.85;8.00;;;24.10;99.90;;;;;;5033278;28;20203;-66
2022/05/02 10:30:08;;;;;;;10.65;8.93;;;24.40;99.90;;;;;;5036466;28;20179;-66
2022/05/02 10:32:55;;;;;;;10.63;9.00;;;24.60;99.90;;;;;;5053357;28;20180;-67
2022/05/02 10:35:21;;;;;;;9.68;8.43;;;24.50;99.90;;;;;;5052549;28;20583;-66
2022/05/02 10:37:56;;;;;;;9.75;8.77;;;24.40;99.50;;;;;;5052994;28;20702;-65
2022/05/02 10:40:39;;;;;;;10.18;9.13;;;24.10;99.90;;;;;;5052963;28;20695;-65
2022/05/02 10:43:09;;;;;;;9.80;8.80;;;23.60;99.90;;;;;;5053108;28;20655;-65
2022/05/02 10:45:37;;;;;;;12.70;9.57;;;23.60;99.90;;;;;;5052066;28;20186;-66
2022/05/02 10:48:46;;;;;;;9.70;8.70;;;23.70;99.90;;;;;;5052636;28;20722;-66
2022/05/02 10:51:14;;;;;;;11.75;8.23;;;23.90;99.90;;;;;;5036152;28;20194;-66
2022/05/02 10:53:57;;;;;;;9.13;8.32;;;24.60;99.90;;;;;;5052057;28;20637;-66
2022/05/02 10:56:31;;;;;;;9.55;8.65;;;24.90;98.80;;;;;;5031007;28;20705;-65
2022/05/02 10:59:01;;;;;;;8.90;8.10;;;25.30;98.90;;;;;;5032579;28;20580;-65
2022/05/02 11:01:35;;;;;;;8.27;7.47;;;25.40;96.70;;;;;;5052266;28;20571;-66
2022/05/02 11:04:29;;;;;;;8.25;7.45;;;25.20;98.60;;;;;;5052197;28;20209;-66
2022/05/02 11:07:26;;;;;;;10.05;8.52;;;25.10;99.10;;;;;;5051703;28;20213;-65
2022/05/02 11:10:08;;;;;;;9.15;8.25;;;25.20;98.00;;;;;;5052356;28;20177;-65
2022/05/02 11:12:45;;;;;;;9.32;8.30;;;25.40;99.70;;;;;;5052603;28;20171;-65
2022/05/02 11:15:13;;;;;;;8.63;7.82;;;25.40;96.80;;;;;;5032167;28;20213;-65
2022/05/02 11:17:53;;;;;;;9.77;8.77;;;25.50;98.50;;;;;;5039723;28;20600;-65
2022/05/02 11:20:43;;;;;;;9.80;8.80;;;25.20;95.30;;;;;;5052331;28;20167;-65
2022/05/02 11:23:42;;;;;;;11.57;9.20;;;24.50;97.00;;;;;;5052048;28;20178;-66
2022/05/02 11:26:33;;;;;;;9.50;8.18;;;24.50;98.70;;;;;;5051693;28;20588;-65
2022/05/02 11:29:16;;;;;;;10.50;8.93;;;24.80;99.70;;;;;;5051636;28;20636;-65
2022/05/02 11:31:57;;;;;;;9.63;8.65;;;25.10;99.60;;;;;;5052274;28;20202;-66
2022/05/02 11:34:22;;;;;;;9.18;8.27;;;25.20;97.90;;;;;;5052042;28;20175;-66
2022/05/02 11:36:53;;;;;;;9.75;8.43;;;25.20;98.00;;;;;;5051409;28;20628;-66
2022/05/02 11:39:48;;;;;;;8.52;7.68;;;25.50;98.20;;;;;;5051678;28;20266;-67
2022/05/02 11:42:18;;;;;;;12.30;9.00;;;26.20;97.30;;;;;;5051892;28;20202;-66
2022/05/02 11:45:02;;;;;;;9.82;8.30;;;26.40;98.30;;;;;;5051295;28;20659;-66
2022/05/02 11:47:56;;;;;;;9.40;8.55;;;26.40;98.50;;;;;;5051399;28;20317;-66
2022/05/02 11:50:24;;;;;;;16.45;10.52;;;26.20;97.50;;;;;;5029509;28;20225;-66
2022/05/02 11:52:54;;;;;;;8.70;7.80;;;26.10;95.80;;;;;;5051355;28;20254;-67
2022/05/02 11:55:29;;;;;;;9.10;8.23;;;26.30;99.00;;;;;;5051237;28;20535;-66
2022/05/02 11:58:08;;;;;;;8.82;8.00;;;26.30;96.50;;;;;;5049248;28;20202;-67
2022/05/02 12:00:38;;;;;;;9.73;8.73;;;26.10;95.60;;;;;;5051699;28;20162;-66
2022/05/02 12:03:20;;;;;;;11.00;8.45;;;26.20;97.10;;;;;;5051082;28;20167;-66
2022/05/02 12:05:51;;;;;;;8.63;7.93;;;26.40;96.10;;;;;;5051326;28;20194;-67
2022/05/02 12:08:33;;;;;;;9.48;8.63;;;26.50;94.80;;;;;;5051371;28;20175;-66
2022/05/02 12:11:10;;;;;;;10.73;8.15;;;26.40;95.80;;;;;;5051608;28;20583;-66
2022/05/02 12:13:40;;;;;;;9.40;8.43;;;26.40;96.60;;;;;;5051187;28;20261;-66
2022/05/02 12:16:13;;;;;;;9.52;8.50;;;26.40;94.30;;;;;;5046939;28;20213;-65
2022/05/02 12:18:43;;;;;;;9.57;8.68;;;26.60;95.60;;;;;;5051521;28;20179;-66
2022/05/02 12:21:20;;;;;;;8.40;7.60;;;26.60;93.90;;;;;;5051308;28;20224;-66
2022/05/02 12:23:46;;;;;;;9.50;8.57;;;26.20;95.90;;;;;;5051339;28;20183;-65
2022/05/02 12:26:21;;;;;;;8.93;8.02;;;26.00;94.50;;;;;;5050870;28;20217;-66
2022/05/02 12:28:53;;;;;;;11.95;8.27;;;25.90;94.70;;;;;;5050077;28;20202;-66
2022/05/02 12:31:24;;;;;;;10.35;8.38;;;26.00;96.50;;;;;;5051204;28;20175;-66
2022/05/02 12:34:09;;;;;;;9.10;8.20;;;26.40;97.00;;;;;;5051333;28;20746;-63
2022/05/02 12:36:43;;;;;;;8.38;7.30;;;26.70;98.60;;;;;;5050756;28;20210;-66
2022/05/02 12:39:24;;;;;;;7.82;7.10;;;26.30;93.80;;;;;;5051280;28;20181;-66
2022/05/02 12:41:57;;;;;;;8.70;7.50;;;26.30;95.50;;;;;;5050947;28;20555;-66
2022/05/02 12:44:29;;;;;;;10.73;8.10;;;26.40;93.80;;;;;;5051306;28;20544;-66
2022/05/02 12:47:03;;;;;;;9.68;8.77;;;26.40;95.60;;;;;;5050307;28;20260;-65
2022/05/02 12:49:41;;;;;;;9.25;8.40;;;26.00;93.20;;;;;;5050545;28;20166;-66
2022/05/02 12:52:07;;;;;;;9.57;8.63;;;25.70;95.30;;;;;;5051305;28;20206;-66
2022/05/02 12:54:34;;;;;;;9.30;7.70;;;25.90;94.00;;;;;;5050825;28;20170;-65
2022/05/02 13:02:38;;;;;;;9.55;8.43;;;26.80;92.60;;;;;;5050838;28;20563;-65
2022/05/02 13:05:25;;;;;;;9.85;8.38;;;26.60;92.50;;;;;;5050822;28;20648;-66
2022/05/02 13:07:53;;;;;;;9.18;8.27;;;26.40;93.80;;;;;;5050370;28;20698;-67
2022/05/02 13:10:26;;;;;;;9.15;8.23;;;26.60;92.70;;;;;;5051118;28;20182;-65
2022/05/02 13:13:02;;;;;;;11.60;9.05;;;26.40;93.50;;;;;;5073674;28;20263;-65
2022/05/02 13:15:39;;;;;;;9.50;8.45;;;26.30;91.70;;;;;;5074060;28;20170;-66
2022/05/02 13:18:18;;;;;;;9.52;8.38;;;25.90;93.30;;;;;;5059027;28;20545;-66
2022/05/02 13:20:57;;;;;;;8.02;7.10;;;25.90;93.50;;;;;;5049444;28;20185;-66
2022/05/02 13:23:34;;;;;;;10.10;8.20;;;25.60;93.10;;;;;;5032954;28;20637;-66
2022/05/02 13:26:26;;;;;;;9.18;8.18;;;25.30;92.50;;;;;;5046908;28;20684;-66
2022/05/02 13:28:58;;;;;;;10.25;9.25;;;25.20;95.90;;;;;;5054222;28;20564;-66
2022/05/02 13:31:47;;;;;;;9.57;8.57;;;25.30;92.20;;;;;;5053848;28;20178;-66
2022/05/02 13:34:53;;;;;;;9.73;8.57;;;25.20;92.90;;;;;;5054444;28;20167;-66
2022/05/02 13:37:49;;;;;;;9.38;8.48;;;25.40;93.10;;;;;;5034260;28;20260;-67
2022/05/02 13:40:18;;;;;;;9.00;8.20;;;25.60;91.20;;;;;;5044741;28;20182;-66
2022/05/02 13:43:06;;;;;;;11.20;9.00;;;25.70;94.50;;;;;;5054167;28;20167;-65
2022/05/02 13:45:48;;;;;;;8.82;7.93;;;25.90;91.80;;;;;;5053691;28;20268;-66